Wetterdaten: Woche 18.01.10 - 24.01.10 (KW3)
Datum Zeit Temp. A. Feuchte A. Luftdruck Regen Wind Richtung Taupunkt Windchill Windben
18.01.2010 00:00 4,1 C 84 % 1024,1 hPa 0,0 l/m 0,0 km/h N-NO 1,6 C 4,1 C 0,0 km/h
18.01.2010 01:00 3,6 C 88 % 1024,1 hPa 0,0 l/m 0,0 km/h O-NO 1,8 C 3,6 C 0,0 km/h
18.01.2010 02:00 3,8 C 88 % 1024,2 hPa 0,0 l/m 0,0 km/h NO 2,0 C 3,8 C 0,0 km/h
18.01.2010 03:00 1,9 C 92 % 1024,3 hPa 0,0 l/m 0,0 km/h O-SO 0,7 C 1,9 C 0,0 km/h
18.01.2010 04:00 1,2 C 92 % 1024,2 hPa 0,0 l/m 0,0 km/h SO 0,0 C 1,2 C 0,0 km/h
18.01.2010 05:00 1,5 C 93 % 1024,4 hPa 0,0 l/m 0,0 km/h NO 0,5 C 1,5 C 0,0 km/h
18.01.2010 06:00 1,8 C 94 % 1024,9 hPa 0,0 l/m 0,0 km/h O-NO 0,9 C 1,8 C 0,0 km/h
18.01.2010 07:00 1,8 C 94 % 1025,0 hPa 0,0 l/m 0,0 km/h O-SO 0,9 C 1,8 C 0,0 km/h
18.01.2010 08:00 1,9 C 94 % 1025,6 hPa 0,0 l/m 0,0 km/h O-NO 1,0 C 1,9 C 0,0 km/h
18.01.2010 09:00 2,9 C 94 % 1026,0 hPa 0,0 l/m 0,0 km/h O-SO 2,0 C 2,9 C 0,0 km/h
18.01.2010 10:00 3,9 C 94 % 1025,7 hPa 0,0 l/m 0,0 km/h N-NW 3,0 C 3,9 C 0,0 km/h
18.01.2010 11:00 9,7 C 80 % 1025,3 hPa 0,0 l/m 0,0 km/h W-SW 6,4 C 9,7 C 0,0 km/h
18.01.2010 12:00 9,5 C 73 % 1024,8 hPa 0,0 l/m 0,0 km/h W-SW 4,9 C 9,5 C 0,0 km/h
18.01.2010 13:00 10,9 C 69 % 1024,2 hPa 0,0 l/m 1,8 km/h W 5,4 C 10,9 C 1,8 km/h
18.01.2010 14:00 7,2 C 75 % 1024,0 hPa 0,0 l/m 0,0 km/h W 3,1 C 7,2 C 0,0 km/h
18.01.2010 15:00 7,2 C 77 % 1024,2 hPa 0,0 l/m 0,0 km/h W-NW 3,4 C 7,2 C 0,0 km/h
18.01.2010 16:00 4,7 C 82 % 1024,5 hPa 0,0 l/m 0,0 km/h O-NO 1,9 C 4,7 C 0,0 km/h
18.01.2010 17:00 2,1 C 88 % 1024,5 hPa 0,0 l/m 0,0 km/h O-NO 0,3 C 2,1 C 0,0 km/h
18.01.2010 18:00 0,9 C 90 % 1024,8 hPa 0,0 l/m 0,0 km/h NO -0,6 C 0,9 C 0,0 km/h
18.01.2010 19:00 0,2 C 91 % 1024,6 hPa 0,0 l/m 0,0 km/h NO -1,1 C 0,2 C 0,0 km/h
18.01.2010 20:00 -0,8 C 92 % 1024,9 hPa 0,0 l/m 0,0 km/h N-NW -1,9 C -0,8 C 0,0 km/h
18.01.2010 21:00 -1,1 C 92 % 1024,7 hPa 0,0 l/m 0,0 km/h N-NO -2,2 C -1,1 C 0,0 km/h
18.01.2010 22:00 -1,3 C 93 % 1024,3 hPa 0,0 l/m 0,0 km/h N-NO -2,3 C -1,3 C 0,0 km/h
18.01.2010 23:00 -1,6 C 93 % 1024,2 hPa 0,0 l/m 0,0 km/h O-SO -2,6 C -1,6 C 0,0 km/h
19.01.2010 00:00 -1,6 C 93 % 1024,0 hPa 0,0 l/m 0,0 km/h O-SO -2,6 C -1,6 C 0,0 km/h
19.01.2010 01:00 -1,1 C 94 % 1023,8 hPa 0,0 l/m 0,0 km/h NW -1,9 C -1,1 C 0,0 km/h
19.01.2010 02:00 -1,0 C 94 % 1023,4 hPa 0,0 l/m 0,0 km/h W-NW -1,8 C -1,0 C 0,0 km/h
19.01.2010 03:00 -2,7 C 94 % 1023,1 hPa 0,0 l/m 0,0 km/h N-NO -3,5 C -2,7 C 0,0 km/h
19.01.2010 04:00 -1,9 C 94 % 1023,0 hPa 0,0 l/m 0,0 km/h N -2,7 C -1,9 C 0,0 km/h
19.01.2010 05:00 -1,8 C 94 % 1022,3 hPa 0,0 l/m 0,0 km/h N -2,6 C -1,8 C 0,0 km/h
19.01.2010 06:00 -1,9 C 94 % 1022,0 hPa 0,0 l/m 0,0 km/h W-NW -2,7 C -1,9 C 0,0 km/h
19.01.2010 07:00 -2,1 C 94 % 1022,2 hPa 0,0 l/m 0,0 km/h O-NO -2,9 C -2,1 C 0,0 km/h
19.01.2010 08:00 -1,9 C 94 % 1022,5 hPa 0,0 l/m 0,0 km/h SO -2,7 C -1,9 C 0,0 km/h
19.01.2010 09:00 -1,6 C 94 % 1022,3 hPa 0,0 l/m 0,0 km/h SW -2,4 C -1,6 C 0,0 km/h
19.01.2010 10:00 -1,2 C 95 % 1022,0 hPa 0,0 l/m 0,0 km/h N -1,9 C -1,2 C 0,0 km/h
19.01.2010 11:00 -1,0 C 94 % 1021,4 hPa 0,0 l/m 0,0 km/h SW -1,8 C -1,0 C 0,0 km/h
19.01.2010 12:00 -0,9 C 94 % 1020,9 hPa 0,0 l/m 0,0 km/h W -1,7 C -0,9 C 0,0 km/h
19.01.2010 13:00 -0,6 C 94 % 1020,0 hPa 0,0 l/m 0,0 km/h SO -1,4 C -0,6 C 0,0 km/h
19.01.2010 14:00 -0,7 C 93 % 1019,2 hPa 0,0 l/m 0,0 km/h SW -1,7 C -0,7 C 0,0 km/h
19.01.2010 15:00 -0,9 C 94 % 1019,3 hPa 0,0 l/m 2,2 km/h S-SW -1,7 C -0,9 C 2,2 km/h
19.01.2010 16:00 -1,1 C 94 % 1019,3 hPa 0,0 l/m 0,0 km/h S -1,9 C -1,1 C 0,0 km/h
19.01.2010 17:00 -1,1 C 95 % 1019,3 hPa 0,0 l/m 0,0 km/h SO -1,8 C -1,1 C 0,0 km/h
19.01.2010 18:00 -1,3 C 95 % 1019,3 hPa 0,0 l/m 0,0 km/h SW -2,0 C -1,3 C 0,0 km/h
19.01.2010 19:00 -1,5 C 94 % 1018,8 hPa 0,0 l/m 0,0 km/h S -2,3 C -1,5 C 0,0 km/h
19.01.2010 20:00 -1,6 C 95 % 1018,8 hPa 0,0 l/m 0,0 km/h SW -2,3 C -1,6 C 0,0 km/h
19.01.2010 21:00 -1,6 C 95 % 1018,5 hPa 0,0 l/m 0,0 km/h S-SW -2,3 C -1,6 C 0,0 km/h
19.01.2010 22:00 -1,5 C 95 % 1018,3 hPa 0,0 l/m 0,0 km/h SW -2,2 C -1,5 C 0,0 km/h
19.01.2010 23:00 -1,6 C 95 % 1017,8 hPa 0,0 l/m 0,0 km/h SW -2,3 C -1,6 C 0,0 km/h
20.01.2010 00:00 -1,6 C 95 % 1017,1 hPa 0,0 l/m 0,0 km/h S -2,3 C -1,6 C 0,0 km/h
20.01.2010 01:00 -1,6 C 95 % 1016,6 hPa 0,0 l/m 0,0 km/h SW -2,3 C -1,6 C 0,0 km/h
20.01.2010 02:00 -1,6 C 95 % 1016,6 hPa 0,0 l/m 0,0 km/h SW -2,3 C -1,6 C 0,0 km/h
20.01.2010 03:00 -1,8 C 95 % 1016,1 hPa 0,0 l/m 0,0 km/h SW -2,5 C -1,8 C 0,0 km/h
20.01.2010 04:00 -1,9 C 95 % 1015,7 hPa 0,0 l/m 0,0 km/h S-SO -2,6 C -1,9 C 0,0 km/h
20.01.2010 05:00 -2,0 C 95 % 1015,0 hPa 0,0 l/m 0,0 km/h S -2,7 C -2,0 C 0,0 km/h
20.01.2010 06:00 -2,1 C 95 % 1014,5 hPa 0,0 l/m 0,0 km/h N-NO -2,8 C -2,1 C 0,0 km/h
20.01.2010 07:00 -2,2 C 94 % 1014,3 hPa 0,0 l/m 0,0 km/h SO -3,0 C -2,2 C 0,0 km/h
20.01.2010 08:00 -2,1 C 94 % 1013,7 hPa 0,0 l/m 0,0 km/h O-SO -2,9 C -2,1 C 0,0 km/h
20.01.2010 09:00 -2,1 C 94 % 1013,4 hPa 0,0 l/m 0,4 km/h NW -2,9 C -2,1 C 0,4 km/h
20.01.2010 10:00 -1,7 C 94 % 1013,5 hPa 0,0 l/m 0,0 km/h S-SW -2,5 C -1,7 C 0,0 km/h
20.01.2010 11:00 -1,4 C 93 % 1013,1 hPa 0,0 l/m 0,0 km/h S-SO -2,4 C -1,4 C 0,0 km/h
20.01.2010 12:00 -0,9 C 92 % 1012,5 hPa 0,0 l/m 0,0 km/h W-SW -2,0 C -0,9 C 0,0 km/h
20.01.2010 13:00 -0,7 C 91 % 1011,8 hPa 0,0 l/m 0,0 km/h W-SW -2,0 C -0,7 C 0,0 km/h
20.01.2010 14:00 -0,6 C 90 % 1011,7 hPa 0,0 l/m 0,0 km/h W-SW -2,0 C -0,6 C 0,0 km/h
20.01.2010 15:00 -0,9 C 91 % 1011,8 hPa 0,0 l/m 0,0 km/h W-SW -2,2 C -0,9 C 0,0 km/h
20.01.2010 16:00 -1,2 C 91 % 1012,0 hPa 0,0 l/m 0,0 km/h W-NW -2,5 C -1,2 C 0,0 km/h
20.01.2010 17:00 -1,4 C 93 % 1011,8 hPa 0,0 l/m 0,0 km/h W-NW -2,4 C -1,4 C 0,0 km/h
20.01.2010 18:00 -1,1 C 93 % 1012,7 hPa 0,0 l/m 0,0 km/h NO -2,1 C -1,1 C 0,0 km/h
20.01.2010 19:00 -0,8 C 93 % 1012,8 hPa 0,0 l/m 0,0 km/h NO -1,8 C -0,8 C 0,0 km/h
20.01.2010 20:00 -0,6 C 93 % 1013,1 hPa 0,0 l/m 0,0 km/h N-NO -1,6 C -0,6 C 0,0 km/h
20.01.2010 21:00 -0,5 C 94 % 1013,6 hPa 0,0 l/m 0,0 km/h W-NW -1,3 C -0,5 C 0,0 km/h
20.01.2010 22:00 -0,4 C 94 % 1014,2 hPa 0,0 l/m 0,0 km/h W-NW -1,2 C -0,4 C 0,0 km/h
20.01.2010 23:00 -0,4 C 94 % 1014,9 hPa 0,0 l/m 0,0 km/h O-NO -1,2 C -0,4 C 0,0 km/h
21.01.2010 00:00 -0,1 C 94 % 1015,0 hPa 0,0 l/m 0,0 km/h O-NO -0,9 C -0,1 C 0,0 km/h
21.01.2010 01:00 0,2 C 94 % 1015,5 hPa 0,0 l/m 0,0 km/h O -0,6 C 0,2 C 0,0 km/h
21.01.2010 02:00 0,5 C 94 % 1016,1 hPa 0,0 l/m 0,0 km/h SO -0,4 C 0,5 C 0,0 km/h
21.01.2010 03:00 0,7 C 94 % 1016,4 hPa 0,0 l/m 0,0 km/h SO -0,2 C 0,7 C 0,0 km/h
21.01.2010 04:00 0,7 C 95 % 1016,8 hPa 0,0 l/m 0,0 km/h O-SO -0,0 C 0,7 C 0,0 km/h
21.01.2010 05:00 0,7 C 95 % 1017,1 hPa 0,0 l/m 0,0 km/h O-NO -0,0 C 0,7 C 0,0 km/h
21.01.2010 06:00 0,9 C 95 % 1017,8 hPa 0,0 l/m 0,0 km/h O 0,2 C 0,9 C 0,0 km/h
21.01.2010 07:00 1,1 C 95 % 1018,4 hPa 0,0 l/m 0,0 km/h O-SO 0,4 C 1,1 C 0,0 km/h
21.01.2010 08:00 1,3 C 95 % 1019,1 hPa 0,4 l/m 0,0 km/h O 0,6 C 1,3 C 0,0 km/h
21.01.2010 09:00 2,1 C 95 % 1019,7 hPa 0,0 l/m 0,0 km/h O-NO 1,4 C 2,1 C 0,0 km/h
21.01.2010 10:00 6,5 C 96 % 1020,1 hPa 0,0 l/m 0,0 km/h W 5,9 C 6,5 C 0,0 km/h
21.01.2010 11:00 8,1 C 86 % 1019,8 hPa 0,4 l/m 0,0 km/h N-NW 5,9 C 8,1 C 0,0 km/h
21.01.2010 12:00 8,3 C 81 % 1019,8 hPa 0,0 l/m 0,0 km/h W 5,2 C 8,3 C 0,0 km/h
21.01.2010 13:00 7,8 C 81 % 1019,4 hPa 0,0 l/m 0,0 km/h N 4,7 C 7,8 C 0,0 km/h
21.01.2010 14:00 6,9 C 83 % 1019,5 hPa 0,0 l/m 0,0 km/h W-NW 4,2 C 6,9 C 0,0 km/h
21.01.2010 15:00 6,2 C 84 % 1019,7 hPa 0,0 l/m 0,0 km/h W-NW 3,7 C 6,2 C 0,0 km/h
21.01.2010 16:00 4,4 C 88 % 1020,3 hPa 0,0 l/m 0,0 km/h NW 2,6 C 4,4 C 0,0 km/h
21.01.2010 17:00 3,3 C 91 % 1020,6 hPa 0,0 l/m 0,0 km/h O-SO 2,0 C 3,3 C 0,0 km/h
21.01.2010 18:00 2,9 C 92 % 1020,7 hPa 0,0 l/m 0,0 km/h W 1,7 C 2,9 C 0,0 km/h
21.01.2010 19:00 2,7 C 93 % 1021,1 hPa 0,0 l/m 0,0 km/h O-SO 1,7 C 2,7 C 0,0 km/h
21.01.2010 20:00 2,4 C 94 % 1021,3 hPa 0,0 l/m 0,0 km/h NO 1,5 C 2,4 C 0,0 km/h
21.01.2010 21:00 2,5 C 94 % 1021,3 hPa 0,0 l/m 0,0 km/h NO 1,6 C 2,5 C 0,0 km/h
21.01.2010 22:00 2,1 C 94 % 1021,3 hPa 0,0 l/m 0,0 km/h NO 1,2 C 2,1 C 0,0 km/h
21.01.2010 23:00 2,3 C 94 % 1021,4 hPa 0,0 l/m 0,0 km/h NO 1,4 C 2,3 C 0,0 km/h
22.01.2010 00:00 2,2 C 94 % 1021,3 hPa 0,0 l/m 0,0 km/h NO 1,3 C 2,2 C 0,0 km/h
22.01.2010 01:00 1,8 C 94 % 1021,1 hPa 0,0 l/m 0,0 km/h O 0,9 C 1,8 C 0,0 km/h
22.01.2010 02:00 1,9 C 95 % 1021,4 hPa 0,0 l/m 0,0 km/h W-NW 1,2 C 1,9 C 0,0 km/h
22.01.2010 03:00 1,7 C 95 % 1021,3 hPa 0,0 l/m 0,0 km/h W 1,0 C 1,7 C 0,0 km/h
22.01.2010 04:00 1,6 C 95 % 1021,3 hPa 0,0 l/m 0,0 km/h W-SW 0,9 C 1,6 C 0,0 km/h
22.01.2010 05:00 1,6 C 95 % 1021,4 hPa 0,0 l/m 0,0 km/h W-SW 0,9 C 1,6 C 0,0 km/h
22.01.2010 06:00 1,6 C 95 % 1021,4 hPa 0,0 l/m 0,0 km/h W-SW 0,9 C 1,6 C 0,0 km/h
22.01.2010 07:00 1,6 C 95 % 1021,5 hPa 0,0 l/m 0,0 km/h W-SW 0,9 C 1,6 C 0,0 km/h
22.01.2010 08:00 1,8 C 95 % 1021,8 hPa 0,0 l/m 0,0 km/h W-SW 1,1 C 1,8 C 0,0 km/h
22.01.2010 09:00 2,1 C 96 % 1022,2 hPa 0,0 l/m 0,0 km/h W 1,5 C 2,1 C 0,0 km/h
22.01.2010 10:00 2,9 C 96 % 1022,3 hPa 0,0 l/m 0,0 km/h W 2,3 C 2,9 C 0,0 km/h
22.01.2010 11:00 3,3 C 95 % 1022,1 hPa 0,0 l/m 0,0 km/h W 2,6 C 3,3 C 0,0 km/h
22.01.2010 12:00 3,4 C 93 % 1022,0 hPa 0,0 l/m 0,0 km/h W-NW 2,4 C 3,4 C 0,0 km/h
22.01.2010 13:00 3,8 C 93 % 1021,5 hPa 0,0 l/m 0,0 km/h W 2,8 C 3,8 C 0,0 km/h
22.01.2010 14:00 3,4 C 92 % 1021,5 hPa 0,0 l/m 0,0 km/h W-NW 2,2 C 3,4 C 0,0 km/h
22.01.2010 15:00 3,2 C 93 % 1021,7 hPa 0,0 l/m 0,0 km/h W 2,2 C 3,2 C 0,0 km/h
22.01.2010 16:00 2,9 C 94 % 1022,0 hPa 0,0 l/m 0,0 km/h W 2,0 C 2,9 C 0,0 km/h
22.01.2010 17:00 2,6 C 94 % 1022,1 hPa 0,0 l/m 0,0 km/h W 1,7 C 2,6 C 0,0 km/h
22.01.2010 18:00 2,5 C 94 % 1022,3 hPa 0,0 l/m 0,0 km/h W-SW 1,6 C 2,5 C 0,0 km/h
22.01.2010 19:00 2,2 C 94 % 1022,4 hPa 0,0 l/m 0,0 km/h W-SW 1,3 C 2,2 C 0,0 km/h
22.01.2010 20:00 1,9 C 95 % 1022,3 hPa 0,0 l/m 0,0 km/h W 1,2 C 1,9 C 0,0 km/h
22.01.2010 21:00 1,7 C 95 % 1022,9 hPa 0,0 l/m 0,0 km/h SO 1,0 C 1,7 C 0,0 km/h
22.01.2010 22:00 0,4 C 94 % 1022,9 hPa 0,0 l/m 0,0 km/h SO -0,5 C 0,4 C 0,0 km/h
22.01.2010 23:00 -1,6 C 94 % 1022,6 hPa 0,0 l/m 0,0 km/h NO -2,4 C -1,6 C 0,0 km/h
23.01.2010 00:00 -1,1 C 95 % 1022,7 hPa 0,0 l/m 0,0 km/h NO -1,8 C -1,1 C 0,0 km/h
23.01.2010 01:00 -1,1 C 95 % 1022,3 hPa 0,0 l/m 0,0 km/h O -1,8 C -1,1 C 0,0 km/h
23.01.2010 02:00 -0,7 C 95 % 1022,2 hPa 0,0 l/m 0,0 km/h O -1,4 C -0,7 C 0,0 km/h
23.01.2010 03:00 -0,6 C 95 % 1021,5 hPa 0,0 l/m 1,8 km/h O -1,3 C -0,6 C 1,8 km/h
23.01.2010 04:00 -1,5 C 93 % 1021,3 hPa 0,0 l/m 4,7 km/h O -2,5 C -1,5 C 4,7 km/h
23.01.2010 05:00 -2,7 C 94 % 1021,0 hPa 0,0 l/m 1,8 km/h O -3,5 C -2,7 C 1,8 km/h
23.01.2010 06:00 -2,9 C 94 % 1021,4 hPa 0,0 l/m 0,0 km/h O -3,7 C -2,9 C 0,0 km/h
23.01.2010 07:00 -2,7 C 94 % 1021,0 hPa 0,0 l/m 0,0 km/h O -3,5 C -2,7 C 0,0 km/h
23.01.2010 08:00 -2,1 C 94 % 1020,7 hPa 0,0 l/m 0,0 km/h O-SO -2,9 C -2,1 C 0,0 km/h
23.01.2010 09:00 1,6 C 84 % 1021,3 hPa 0,0 l/m 10,1 km/h SO -0,8 C -1,8 C 10,1 km/h
23.01.2010 10:00 4,4 C 77 % 1021,2 hPa 0,0 l/m 3,2 km/h S-SO 0,7 C 4,4 C 3,2 km/h
23.01.2010 11:00 7,0 C 72 % 1020,6 hPa 0,0 l/m 0,0 km/h S-SW 2,3 C 7,0 C 0,0 km/h
23.01.2010 12:00 6,9 C 64 % 1020,2 hPa 0,0 l/m 0,0 km/h W 0,6 C 6,9 C 0,0 km/h
23.01.2010 13:00 6,4 C 66 % 1020,0 hPa 0,0 l/m 0,0 km/h NW 0,5 C 6,4 C 0,0 km/h
23.01.2010 14:00 6,8 C 65 % 1019,5 hPa 0,0 l/m 0,4 km/h W-NW 0,7 C 6,8 C 0,4 km/h
23.01.2010 15:00 5,9 C 66 % 1019,7 hPa 0,0 l/m 0,0 km/h W 0,0 C 5,9 C 0,0 km/h
23.01.2010 16:00 2,4 C 76 % 1020,1 hPa 0,0 l/m 0,0 km/h O-NO -1,4 C 2,4 C 0,0 km/h
23.01.2010 17:00 -0,8 C 85 % 1020,1 hPa 0,0 l/m 0,0 km/h O-NO -3,0 C -0,8 C 0,0 km/h
23.01.2010 18:00 -1,7 C 89 % 1020,3 hPa 0,0 l/m 0,0 km/h NO -3,3 C -1,7 C 0,0 km/h
23.01.2010 19:00 -2,1 C 91 % 1020,2 hPa 0,0 l/m 0,0 km/h O-NO -3,4 C -2,1 C 0,0 km/h
23.01.2010 20:00 -2,4 C 91 % 1020,4 hPa 0,0 l/m 0,0 km/h O-NO -3,7 C -2,4 C 0,0 km/h
23.01.2010 21:00 -2,7 C 92 % 1020,2 hPa 0,0 l/m 0,0 km/h O -3,8 C -2,7 C 0,0 km/h
23.01.2010 22:00 -3,1 C 92 % 1020,1 hPa 0,0 l/m 0,0 km/h NO -4,2 C -3,1 C 0,0 km/h
23.01.2010 23:00 -3,2 C 92 % 1020,2 hPa 0,0 l/m 0,0 km/h O-SO -4,3 C -3,2 C 0,0 km/h
24.01.2010 00:00 -3,3 C 93 % 1020,0 hPa 0,0 l/m 0,0 km/h NO -4,3 C -3,3 C 0,0 km/h
24.01.2010 01:00 -3,6 C 93 % 1020,0 hPa 0,0 l/m 0,0 km/h N-NO -4,6 C -3,6 C 0,0 km/h
24.01.2010 02:00 -3,7 C 93 % 1019,8 hPa 0,0 l/m 0,0 km/h N-NO -4,7 C -3,7 C 0,0 km/h
24.01.2010 03:00 -3,6 C 93 % 1020,1 hPa 0,0 l/m 0,0 km/h NO -4,6 C -3,6 C 0,0 km/h
24.01.2010 04:00 -3,7 C 93 % 1020,2 hPa 0,0 l/m 0,0 km/h NO -4,7 C -3,7 C 0,0 km/h
24.01.2010 05:00 -3,6 C 93 % 1020,3 hPa 0,0 l/m 0,0 km/h N-NO -4,6 C -3,6 C 0,0 km/h
24.01.2010 06:00 -2,9 C 94 % 1020,4 hPa 0,0 l/m 0,0 km/h O -3,7 C -2,9 C 0,0 km/h
24.01.2010 07:00 -2,3 C 94 % 1020,6 hPa 0,0 l/m 0,0 km/h O-SO -3,1 C -2,3 C 0,0 km/h
24.01.2010 08:00 -2,1 C 94 % 1020,6 hPa 0,0 l/m 0,0 km/h NO -2,9 C -2,1 C 0,0 km/h
24.01.2010 09:00 -0,2 C 95 % 1021,0 hPa 0,0 l/m 0,0 km/h SO -0,9 C -0,2 C 0,0 km/h
24.01.2010 10:00 3,9 C 92 % 1021,3 hPa 0,0 l/m 0,0 km/h W-SW 2,7 C 3,9 C 0,0 km/h
24.01.2010 11:00 4,8 C 83 % 1020,9 hPa 0,0 l/m 0,0 km/h SW 2,2 C 4,8 C 0,0 km/h
24.01.2010 12:00 5,6 C 79 % 1020,5 hPa 0,0 l/m 0,0 km/h W-SW 2,3 C 5,6 C 0,0 km/h
24.01.2010 13:00 5,3 C 77 % 1020,2 hPa 0,0 l/m 0,0 km/h NO 1,6 C 5,3 C 0,0 km/h
24.01.2010 14:00 5,1 C 78 % 1020,1 hPa 0,0 l/m 0,0 km/h W-NW 1,6 C 5,1 C 0,0 km/h
24.01.2010 15:00 4,9 C 79 % 1020,2 hPa 0,0 l/m 0,0 km/h N 1,6 C 4,9 C 0,0 km/h
24.01.2010 16:00 3,8 C 82 % 1020,0 hPa 0,0 l/m 0,0 km/h W-NW 1,0 C 3,8 C 0,0 km/h
24.01.2010 17:00 2,6 C 86 % 1020,5 hPa 0,0 l/m 0,0 km/h W-SW 0,5 C 2,6 C 0,0 km/h
24.01.2010 18:00 1,8 C 88 % 1020,7 hPa 0,0 l/m 0,0 km/h W 0,0 C 1,8 C 0,0 km/h
24.01.2010 19:00 1,9 C 89 % 1020,6 hPa 0,0 l/m 0,0 km/h W 0,3 C 1,9 C 0,0 km/h
24.01.2010 20:00 1,6 C 90 % 1020,8 hPa 0,0 l/m 0,0 km/h W 0,1 C 1,6 C 0,0 km/h
24.01.2010 21:00 1,5 C 91 % 1020,6 hPa 0,0 l/m 0,0 km/h W 0,2 C 1,5 C 0,0 km/h
24.01.2010 22:00 1,6 C 92 % 1020,8 hPa 0,0 l/m 0,0 km/h W 0,4 C 1,6 C 0,0 km/h
24.01.2010 23:00 1,5 C 92 % 1020,9 hPa 0,0 l/m 0,0 km/h W 0,3 C 1,5 C 0,0 km/h
Min-Datum _ 24.01.10 23.01.10 20.01.10 - 18.01.10 - 24.01.10 24.01.10 18.01.10
_ Min-Zeit 02:53 12:53 14:53 - 00:53 - 02:53 02:53 00:53
Minimum _ -3,7 C 64 % 1011,7 hPa - 0,0 km/h - -4,7 C -3,7 C 0,0 km/h
Max-Datum _ 18.01.10 21.01.10 18.01.10 21.01.10 23.01.10 - 18.01.10 18.01.10 23.01.10
_ Max-Zeit 13:53 10:53 09:53 08:53 09:53 - 11:53 13:53 09:53
Maximum _ 10,9 C 96 % 1026,0 hPa 0,4 l/m 10,1 km/h
SO
- 6,4 C 10,9 C 10,1 km/h
SO
Durchschnitt _ 1,0 C 91 % 1020,2 hPa #0,7 l/m 0,2 km/h W -0,4 C 0,9 C 0,2 km/h